Time;durP1;ratioP1;P1;durP2;ratioP2;P2;SDS_P1;SDS_P2;PMS_P1;PMS_P2;Temp;Humidity;BMP_temperature;BMP_pressure;BME280_temperature;BME280_humidity;BME280_pressure;Samples;Min_cycle;Max_cycle;Signal;HPM_P1;HPM_P2
2021/08/25 00:01:03;;;;;;;6.00;5.40;;;14.30;99.90;;;;;;5148884;27;20110;-80
2021/08/25 00:03:29;;;;;;;7.20;5.78;;;14.20;99.90;;;;;;5111871;28;20114;-79
2021/08/25 00:05:54;;;;;;;7.45;5.45;;;14.30;99.90;;;;;;5127299;28;20034;-79
2021/08/25 00:08:20;;;;;;;6.38;5.65;;;14.20;99.90;;;;;;5128901;28;20406;-79
2021/08/25 00:10:46;;;;;;;8.25;5.93;;;14.20;99.90;;;;;;5108634;28;20028;-79
2021/08/25 00:13:11;;;;;;;9.25;5.95;;;14.30;99.90;;;;;;5121941;28;20029;-78
2021/08/25 00:15:39;;;;;;;8.15;6.05;;;14.20;99.90;;;;;;5131928;28;20070;-79
2021/08/25 00:18:06;;;;;;;7.88;6.15;;;14.20;99.90;;;;;;5118516;28;20070;-79
2021/08/25 00:20:32;;;;;;;8.50;5.88;;;14.20;99.90;;;;;;5108715;27;20023;-79
2021/08/25 00:22:58;;;;;;;8.18;5.93;;;14.20;99.90;;;;;;5121826;28;20024;-79
2021/08/25 00:25:24;;;;;;;8.88;6.20;;;14.10;99.90;;;;;;5126853;28;20467;-79
2021/08/25 00:27:50;;;;;;;7.03;6.07;;;14.10;99.90;;;;;;5125438;28;20114;-79
2021/08/25 00:30:15;;;;;;;9.65;6.72;;;14.10;99.90;;;;;;5130245;28;20030;-79
2021/08/25 00:32:41;;;;;;;7.25;6.50;;;14.10;99.90;;;;;;5114747;28;20479;-79
2021/08/25 00:35:07;;;;;;;8.73;6.22;;;14.10;99.90;;;;;;5108698;28;20016;-78
2021/08/25 00:37:33;;;;;;;7.72;6.05;;;14.00;99.90;;;;;;5117301;28;20034;-79
2021/08/25 00:39:58;;;;;;;6.80;6.10;;;14.00;99.90;;;;;;5106352;28;20028;-79
2021/08/25 00:42:24;;;;;;;8.57;6.50;;;14.10;99.90;;;;;;5107748;28;20404;-79
2021/08/25 00:44:50;;;;;;;7.82;6.05;;;14.00;99.90;;;;;;5103481;28;20027;-79
2021/08/25 00:47:16;;;;;;;8.32;5.70;;;14.00;99.90;;;;;;5105375;28;20035;-80
2021/08/25 00:49:45;;;;;;;9.43;6.40;;;13.90;99.90;;;;;;5106001;28;20080;-79
2021/08/25 00:52:11;;;;;;;8.45;5.93;;;13.90;99.90;;;;;;5101481;28;20384;-79
2021/08/25 00:54:36;;;;;;;9.25;6.47;;;13.90;99.90;;;;;;5109767;28;20035;-78
2021/08/25 00:57:02;;;;;;;7.20;6.00;;;13.80;99.90;;;;;;5115874;28;20023;-80
2021/08/25 00:59:31;;;;;;;10.75;5.93;;;13.80;99.90;;;;;;5103960;28;20119;-79
2021/08/25 01:02:34;;;;;;;9.10;6.00;;;13.80;99.90;;;;;;5103587;28;20032;-78
2021/08/25 01:05:01;;;;;;;7.47;6.32;;;13.80;99.90;;;;;;5104268;28;20028;-78
2021/08/25 01:07:35;;;;;;;8.35;6.80;;;13.70;99.90;;;;;;5122453;27;20024;-78
2021/08/25 01:10:26;;;;;;;10.55;6.35;;;13.70;99.90;;;;;;5093294;28;20053;-78
2021/08/25 01:13:04;;;;;;;9.63;6.50;;;13.70;99.90;;;;;;5089163;28;20024;-78
2021/08/25 01:15:31;;;;;;;8.73;6.18;;;13.70;99.90;;;;;;5084957;28;20117;-78
2021/08/25 01:17:59;;;;;;;8.40;6.65;;;13.70;99.90;;;;;;5102766;28;20136;-79
2021/08/25 01:20:26;;;;;;;11.32;6.20;;;13.60;99.90;;;;;;5120548;28;20034;-78
2021/08/25 01:22:53;;;;;;;8.82;6.68;;;13.70;99.90;;;;;;5128825;27;20028;-78
2021/08/25 01:25:19;;;;;;;9.32;7.00;;;13.60;99.90;;;;;;5114317;28;20127;-79
2021/08/25 01:27:59;;;;;;;9.57;6.60;;;13.60;99.90;;;;;;5120586;28;20030;-79
2021/08/25 01:30:27;;;;;;;9.43;7.03;;;13.50;99.90;;;;;;5100601;28;20024;-78
2021/08/25 01:32:53;;;;;;;6.93;6.22;;;13.50;99.90;;;;;;5110529;28;20030;-79
2021/08/25 01:35:19;;;;;;;8.13;6.47;;;13.50;99.90;;;;;;5114658;27;20188;-79
2021/08/25 01:37:46;;;;;;;7.88;6.97;;;13.40;99.90;;;;;;5126644;27;20077;-79
2021/08/25 01:40:12;;;;;;;8.32;6.80;;;13.40;99.90;;;;;;5116489;28;20042;-78
2021/08/25 01:42:37;;;;;;;8.40;7.13;;;13.40;99.90;;;;;;5119327;28;20031;-79
2021/08/25 01:45:04;;;;;;;8.93;6.57;;;13.40;99.90;;;;;;5095134;28;20012;-79
2021/08/25 01:47:30;;;;;;;8.13;6.85;;;13.30;99.90;;;;;;5091740;28;20020;-78
2021/08/25 01:49:55;;;;;;;11.90;6.60;;;13.30;99.90;;;;;;5103480;28;20028;-79
2021/08/25 01:52:21;;;;;;;9.43;6.93;;;13.20;99.90;;;;;;5120209;28;20020;-77
2021/08/25 01:54:52;;;;;;;9.40;7.63;;;13.20;99.90;;;;;;5106847;28;20031;-79
2021/08/25 01:57:18;;;;;;;12.40;7.47;;;13.10;99.90;;;;;;5104126;28;20032;-79
2021/08/25 01:59:44;;;;;;;10.23;7.15;;;13.10;99.90;;;;;;5103137;28;20036;-79
2021/08/25 02:02:09;;;;;;;9.77;7.65;;;13.10;99.90;;;;;;5118075;28;20039;-79
2021/08/25 02:04:37;;;;;;;9.73;7.22;;;13.10;99.90;;;;;;5109040;28;20092;-80
2021/08/25 02:07:03;;;;;;;10.00;7.05;;;13.00;99.90;;;;;;5140553;27;20025;-79
2021/08/25 02:09:28;;;;;;;8.90;7.03;;;12.90;99.90;;;;;;5100659;28;20031;-79
2021/08/25 02:11:54;;;;;;;9.73;7.18;;;12.90;99.90;;;;;;5105284;28;20031;-79
2021/08/25 02:14:20;;;;;;;9.45;7.93;;;12.90;99.90;;;;;;5126145;28;20098;-79
2021/08/25 02:16:45;;;;;;;8.90;7.90;;;12.80;99.90;;;;;;5111826;28;20043;-79
2021/08/25 02:19:11;;;;;;;9.02;7.80;;;12.80;99.90;;;;;;5109194;27;20456;-79
2021/08/25 02:21:37;;;;;;;12.35;8.18;;;12.70;99.90;;;;;;5132282;27;20463;-79
2021/08/25 02:24:02;;;;;;;10.02;7.82;;;12.60;99.90;;;;;;5122639;28;20031;-78
2021/08/25 02:26:28;;;;;;;9.52;7.63;;;12.60;99.90;;;;;;5118457;28;20071;-79
2021/08/25 02:28:54;;;;;;;10.80;8.00;;;12.60;99.90;;;;;;5088818;28;20070;-79
2021/08/25 02:31:20;;;;;;;9.85;8.18;;;12.50;99.90;;;;;;5103500;28;20031;-79
2021/08/25 02:33:47;;;;;;;12.20;8.82;;;12.50;99.90;;;;;;5112693;28;20057;-79
2021/08/25 02:36:15;;;;;;;12.05;8.65;;;12.40;99.90;;;;;;5118970;28;20080;-79
2021/08/25 02:38:41;;;;;;;11.10;8.50;;;12.40;99.90;;;;;;5097846;28;20229;-79
2021/08/25 02:41:08;;;;;;;12.80;8.32;;;12.30;99.90;;;;;;5110144;28;20059;-80
2021/08/25 02:43:35;;;;;;;9.77;8.77;;;12.20;99.90;;;;;;5117434;28;20046;-78
2021/08/25 02:46:01;;;;;;;9.90;8.65;;;12.20;99.90;;;;;;5109651;28;20437;-79
2021/08/25 02:48:27;;;;;;;11.00;9.35;;;12.10;99.90;;;;;;5099747;28;20028;-79
2021/08/25 02:50:53;;;;;;;11.18;8.75;;;12.00;99.90;;;;;;5109639;28;20027;-79
2021/08/25 02:53:18;;;;;;;13.88;9.32;;;12.00;99.90;;;;;;5099132;28;20072;-79
2021/08/25 02:55:45;;;;;;;11.13;9.43;;;11.90;99.90;;;;;;5099312;28;20024;-79
2021/08/25 02:58:10;;;;;;;10.98;8.60;;;11.90;99.90;;;;;;5115052;28;20031;-79
2021/08/25 03:00:36;;;;;;;11.82;9.80;;;11.90;99.90;;;;;;5122333;28;20019;-79
2021/08/25 03:03:01;;;;;;;13.98;9.55;;;11.80;99.90;;;;;;5121319;28;20020;-79
2021/08/25 03:05:27;;;;;;;15.10;9.80;;;11.80;99.90;;;;;;5107128;28;20042;-79
2021/08/25 03:07:53;;;;;;;12.57;9.80;;;11.80;99.90;;;;;;5126608;28;20030;-79
2021/08/25 03:10:19;;;;;;;10.55;9.45;;;11.70;99.90;;;;;;5110030;28;20032;-79
2021/08/25 03:12:44;;;;;;;13.48;10.23;;;11.70;99.90;;;;;;5119321;28;20061;-79
2021/08/25 03:15:11;;;;;;;15.70;9.98;;;11.70;99.90;;;;;;5122747;28;20071;-79
2021/08/25 03:17:36;;;;;;;14.25;10.10;;;11.60;99.90;;;;;;5125052;28;20052;-79
2021/08/25 03:20:08;;;;;;;13.43;10.50;;;11.60;99.90;;;;;;5129670;27;20023;-78
2021/08/25 03:22:34;;;;;;;12.82;10.00;;;11.60;99.90;;;;;;5147600;27;20082;-79
2021/08/25 03:25:01;;;;;;;15.48;10.13;;;11.60;99.90;;;;;;5117854;27;20488;-79
2021/08/25 03:27:27;;;;;;;12.95;9.77;;;11.60;99.90;;;;;;5104878;28;20019;-79
2021/08/25 03:29:52;;;;;;;17.02;10.82;;;11.60;99.90;;;;;;5121174;28;20008;-79
2021/08/25 03:32:18;;;;;;;14.48;10.48;;;11.50;99.90;;;;;;5121750;28;20025;-79
2021/08/25 03:34:44;;;;;;;12.85;10.05;;;11.50;99.90;;;;;;5104681;28;20024;-79
2021/08/25 03:37:09;;;;;;;12.10;9.82;;;11.50;99.90;;;;;;5119693;28;20031;-79
2021/08/25 03:39:35;;;;;;;12.50;10.52;;;11.50;99.90;;;;;;5093827;28;20321;-79
2021/08/25 03:42:01;;;;;;;13.18;9.75;;;11.50;99.90;;;;;;5121064;28;20043;-79
2021/08/25 03:44:26;;;;;;;13.65;10.23;;;11.50;99.90;;;;;;5135170;27;20103;-79
2021/08/25 03:46:52;;;;;;;11.75;10.02;;;11.40;99.90;;;;;;5141099;27;20087;-79
2021/08/25 03:49:17;;;;;;;13.00;10.63;;;11.40;99.90;;;;;;5125826;28;20023;-79
2021/08/25 03:51:43;;;;;;;12.65;10.88;;;11.40;99.90;;;;;;5125695;28;20032;-79
2021/08/25 03:54:08;;;;;;;14.88;10.60;;;11.40;99.90;;;;;;5126417;28;20053;-79
2021/08/25 03:56:34;;;;;;;12.93;11.32;;;11.40;99.90;;;;;;5119416;28;20055;-78
2021/08/25 03:59:00;;;;;;;14.52;11.55;;;11.30;99.90;;;;;;5099723;28;20024;-78
2021/08/25 04:01:25;;;;;;;15.18;11.95;;;11.30;99.90;;;;;;5114841;28;20015;-79
2021/08/25 04:03:51;;;;;;;14.00;11.80;;;11.30;99.90;;;;;;5119297;28;20020;-79
2021/08/25 04:06:16;;;;;;;14.88;11.60;;;11.30;99.90;;;;;;5114912;28;20107;-80
2021/08/25 04:08:42;;;;;;;15.10;12.00;;;11.20;99.90;;;;;;5092957;28;20024;-79
2021/08/25 04:11:08;;;;;;;16.23;12.40;;;11.20;99.90;;;;;;5134313;27;20031;-78
2021/08/25 04:13:33;;;;;;;20.05;12.15;;;11.20;99.90;;;;;;5125867;28;20028;-79
2021/08/25 04:15:59;;;;;;;14.48;11.70;;;11.20;99.90;;;;;;5119120;27;20502;-77
2021/08/25 04:18:25;;;;;;;13.45;11.50;;;11.20;99.90;;;;;;5106237;27;20032;-77
2021/08/25 04:20:51;;;;;;;14.65;11.82;;;11.20;99.90;;;;;;5108746;27;20007;-77
2021/08/25 04:23:17;;;;;;;12.23;10.93;;;11.10;99.90;;;;;;5125884;27;20383;-77
2021/08/25 04:25:43;;;;;;;18.08;11.88;;;11.10;99.90;;;;;;5105440;28;20024;-76
2021/08/25 04:28:09;;;;;;;13.35;11.50;;;11.10;99.90;;;;;;5120490;27;20148;-77
2021/08/25 04:30:35;;;;;;;14.23;11.32;;;11.10;99.90;;;;;;5114068;27;20038;-77
2021/08/25 04:33:00;;;;;;;17.35;12.27;;;11.10;99.90;;;;;;5082550;28;20015;-77
2021/08/25 04:35:26;;;;;;;13.85;11.95;;;11.00;99.90;;;;;;5100634;28;20103;-77
2021/08/25 04:37:51;;;;;;;16.30;12.85;;;11.00;99.90;;;;;;5122244;27;20038;-77
2021/08/25 04:40:17;;;;;;;18.52;13.40;;;11.00;99.90;;;;;;5119824;27;20027;-77
2021/08/25 04:42:42;;;;;;;16.95;13.15;;;11.00;99.90;;;;;;5123755;27;20041;-78
2021/08/25 04:45:09;;;;;;;17.08;13.70;;;10.90;99.90;;;;;;5110909;27;20024;-77
2021/08/25 04:47:34;;;;;;;16.17;13.05;;;11.00;99.90;;;;;;5101026;28;20043;-77
2021/08/25 04:50:00;;;;;;;14.95;12.82;;;10.90;99.90;;;;;;5102945;28;20023;-77
2021/08/25 04:52:25;;;;;;;15.77;13.32;;;10.90;99.90;;;;;;5098146;28;20051;-78
2021/08/25 04:54:51;;;;;;;15.20;12.90;;;11.00;99.90;;;;;;5105021;28;20472;-73
2021/08/25 04:57:16;;;;;;;16.27;13.23;;;11.00;99.90;;;;;;5097992;28;20031;-73
2021/08/25 04:59:42;;;;;;;18.50;12.75;;;11.00;99.90;;;;;;5110853;27;20033;-73
2021/08/25 05:02:07;;;;;;;22.10;12.43;;;11.00;99.90;;;;;;5108009;28;20353;-73
2021/08/25 05:04:33;;;;;;;16.25;12.98;;;11.00;99.90;;;;;;5093184;28;20414;-73
2021/08/25 05:06:58;;;;;;;15.75;13.13;;;11.00;99.90;;;;;;5104669;28;20113;-73
2021/08/25 05:09:24;;;;;;;16.02;11.98;;;11.10;99.90;;;;;;5109053;28;20072;-73
2021/08/25 05:11:50;;;;;;;14.68;12.35;;;11.10;99.90;;;;;;5087185;28;20518;-73
2021/08/25 05:14:15;;;;;;;16.20;12.18;;;11.10;99.90;;;;;;5095849;28;20019;-73
2021/08/25 05:16:41;;;;;;;15.23;11.18;;;11.20;99.90;;;;;;5102958;28;20142;-73
2021/08/25 05:19:06;;;;;;;17.27;11.38;;;11.20;99.90;;;;;;5090703;28;20024;-73
2021/08/25 05:21:32;;;;;;;14.30;10.75;;;11.20;99.90;;;;;;5114029;27;20019;-73
2021/08/25 05:24:01;;;;;;;12.35;11.05;;;11.30;99.90;;;;;;5113038;27;20067;-73
2021/08/25 05:26:30;;;;;;;14.70;11.40;;;11.30;99.90;;;;;;5093714;28;20023;-72
2021/08/25 05:28:58;;;;;;;14.32;10.48;;;11.40;99.90;;;;;;5094504;28;20039;-72
2021/08/25 05:31:27;;;;;;;14.07;11.50;;;11.50;99.90;;;;;;5110909;27;20023;-72
2021/08/25 05:33:59;;;;;;;15.43;11.63;;;11.50;99.90;;;;;;5083252;28;20053;-72
2021/08/25 05:36:30;;;;;;;14.38;10.75;;;11.60;99.90;;;;;;5118731;27;20027;-72
2021/08/25 05:38:56;;;;;;;16.00;9.85;;;11.60;99.90;;;;;;5109867;28;20039;-72
2021/08/25 05:41:22;;;;;;;14.57;11.45;;;11.60;99.90;;;;;;5088222;28;20031;-72
2021/08/25 05:43:48;;;;;;;12.65;10.50;;;11.70;99.90;;;;;;5105353;27;20391;-73
2021/08/25 05:46:13;;;;;;;15.23;11.65;;;11.70;99.90;;;;;;5095297;28;20027;-72
2021/08/25 05:48:39;;;;;;;14.45;10.32;;;11.80;99.90;;;;;;5095246;28;20055;-73
2021/08/25 05:51:05;;;;;;;11.73;9.95;;;11.80;99.90;;;;;;5100342;28;20024;-72
2021/08/25 05:53:31;;;;;;;15.52;9.40;;;11.90;99.90;;;;;;5096214;28;20114;-72
2021/08/25 05:55:57;;;;;;;17.58;10.23;;;12.00;99.90;;;;;;5093886;28;20085;-73
2021/08/25 05:58:22;;;;;;;13.88;9.88;;;12.00;99.90;;;;;;5093349;28;20032;-71
2021/08/25 06:00:48;;;;;;;10.93;9.70;;;12.10;99.90;;;;;;5108382;28;20490;-74
2021/08/25 06:03:16;;;;;;;13.07;11.00;;;12.20;99.90;;;;;;5105124;28;20023;-71
2021/08/25 06:05:42;;;;;;;12.00;9.50;;;12.30;99.90;;;;;;5109394;27;20047;-72
2021/08/25 06:08:08;;;;;;;11.73;9.13;;;12.40;99.90;;;;;;5098972;28;20134;-72
2021/08/25 06:10:33;;;;;;;11.60;8.88;;;12.50;99.90;;;;;;5096028;28;20482;-72
2021/08/25 06:13:01;;;;;;;13.52;8.82;;;12.60;99.90;;;;;;5105188;28;20434;-72
2021/08/25 06:15:27;;;;;;;16.92;10.65;;;12.70;99.90;;;;;;5093927;28;20036;-71
2021/08/25 06:17:53;;;;;;;11.80;8.77;;;12.80;99.90;;;;;;5091199;28;20044;-72
2021/08/25 06:20:19;;;;;;;11.23;8.90;;;12.80;99.90;;;;;;5092286;28;20131;-72
2021/08/25 06:22:45;;;;;;;11.95;8.48;;;12.90;99.90;;;;;;5097855;28;20442;-72
2021/08/25 06:25:11;;;;;;;13.98;8.70;;;13.00;99.90;;;;;;5119447;27;20019;-72
2021/08/25 06:27:37;;;;;;;12.48;8.43;;;13.00;99.90;;;;;;5115051;27;20103;-72
2021/08/25 06:30:04;;;;;;;10.10;8.15;;;13.10;99.90;;;;;;5106664;28;20032;-72
2021/08/25 06:32:29;;;;;;;12.05;8.50;;;13.20;99.90;;;;;;5083408;28;20026;-72
2021/08/25 06:34:56;;;;;;;13.32;7.85;;;13.20;99.90;;;;;;5101140;27;20106;-72
2021/08/25 06:37:22;;;;;;;9.10;7.82;;;13.30;99.90;;;;;;5122441;27;20035;-72
2021/08/25 06:39:48;;;;;;;12.70;7.30;;;13.40;99.90;;;;;;5110670;28;20089;-72
2021/08/25 06:42:14;;;;;;;13.32;7.82;;;13.40;99.90;;;;;;5094952;28;20353;-72
2021/08/25 06:44:40;;;;;;;9.50;8.07;;;13.50;99.90;;;;;;5096393;28;20035;-71
2021/08/25 06:47:05;;;;;;;9.70;7.40;;;13.60;99.90;;;;;;5105041;28;20035;-72
2021/08/25 06:49:31;;;;;;;10.63;7.50;;;13.70;99.90;;;;;;5120256;28;20111;-72
2021/08/25 06:51:56;;;;;;;10.13;7.45;;;13.70;99.90;;;;;;5108195;28;20039;-72
2021/08/25 06:54:22;;;;;;;9.05;6.95;;;13.80;99.90;;;;;;5100747;28;20032;-72
2021/08/25 06:56:49;;;;;;;12.00;7.10;;;13.90;99.90;;;;;;5106559;28;20039;-72
2021/08/25 06:59:19;;;;;;;11.48;6.95;;;14.00;99.90;;;;;;5105987;28;20024;-72
2021/08/25 07:01:49;;;;;;;9.50;6.28;;;14.00;99.90;;;;;;5115027;28;20038;-71
2021/08/25 07:04:16;;;;;;;9.07;6.88;;;14.10;99.90;;;;;;5108749;28;20023;-73
2021/08/25 07:06:41;;;;;;;10.75;6.95;;;14.10;99.90;;;;;;5113380;28;20058;-76
2021/08/25 07:09:07;;;;;;;11.45;6.68;;;14.20;99.90;;;;;;5113244;28;20101;-74
2021/08/25 07:11:33;;;;;;;10.98;6.20;;;14.20;99.90;;;;;;5113369;28;20384;-74
2021/08/25 07:13:59;;;;;;;9.93;6.30;;;14.20;99.90;;;;;;5113372;28;20110;-74
2021/08/25 07:16:24;;;;;;;9.00;6.20;;;14.20;99.90;;;;;;5113197;28;20127;-73
2021/08/25 07:18:50;;;;;;;9.73;6.07;;;14.30;99.90;;;;;;5112767;28;20161;-74
2021/08/25 07:21:15;;;;;;;13.05;6.50;;;14.40;99.90;;;;;;5112918;28;20032;-74
2021/08/25 07:23:41;;;;;;;9.68;5.78;;;14.50;99.90;;;;;;5094705;28;20034;-74
2021/08/25 07:26:06;;;;;;;9.55;5.68;;;14.50;99.90;;;;;;5094430;28;20103;-76
2021/08/25 07:28:32;;;;;;;10.10;5.93;;;14.60;99.90;;;;;;5115529;28;20035;-76
2021/08/25 07:30:57;;;;;;;10.25;5.68;;;14.60;99.90;;;;;;5113264;28;20102;-75
2021/08/25 07:33:23;;;;;;;13.20;6.35;;;14.60;99.90;;;;;;5112874;28;20102;-75
2021/08/25 07:35:49;;;;;;;8.68;5.60;;;14.60;99.90;;;;;;5114129;28;20059;-75
2021/08/25 07:38:16;;;;;;;8.50;5.90;;;14.50;99.90;;;;;;5110128;28;20016;-75
2021/08/25 07:40:42;;;;;;;7.05;5.05;;;14.70;99.90;;;;;;5112350;28;20026;-75
2021/08/25 07:43:08;;;;;;;8.73;5.90;;;14.70;99.90;;;;;;5112427;28;20073;-75
2021/08/25 07:45:35;;;;;;;10.45;5.00;;;14.90;99.90;;;;;;5116404;28;20031;-74
2021/08/25 07:48:00;;;;;;;11.27;5.50;;;14.90;99.90;;;;;;5090029;28;20163;-74
2021/08/25 07:50:26;;;;;;;12.77;5.88;;;15.00;99.90;;;;;;5100685;28;20538;-74
2021/08/25 07:52:51;;;;;;;11.02;5.40;;;15.00;99.90;;;;;;5114044;27;20395;-74
2021/08/25 07:55:17;;;;;;;10.35;5.22;;;15.00;99.90;;;;;;5109177;27;20457;-75
2021/08/25 07:57:42;;;;;;;8.35;4.80;;;15.00;99.90;;;;;;5111959;28;20032;-74
2021/08/25 08:00:09;;;;;;;10.20;5.50;;;15.10;99.90;;;;;;5104239;28;20456;-74
2021/08/25 08:02:34;;;;;;;9.75;4.70;;;15.20;99.90;;;;;;5116939;28;20027;-75
2021/08/25 08:05:01;;;;;;;6.63;4.80;;;15.20;99.90;;;;;;5098435;28;20107;-75
2021/08/25 08:07:27;;;;;;;7.88;5.03;;;15.30;99.90;;;;;;5112963;27;20041;-75
2021/08/25 08:09:52;;;;;;;7.18;4.93;;;15.40;99.90;;;;;;5108374;27;20505;-75
2021/08/25 08:12:18;;;;;;;7.72;4.93;;;15.40;99.90;;;;;;5118824;27;20032;-74
2021/08/25 08:14:44;;;;;;;9.23;5.22;;;15.50;99.90;;;;;;5109935;27;20332;-74
2021/08/25 08:17:10;;;;;;;11.23;4.88;;;15.50;99.90;;;;;;5111662;27;20140;-74
2021/08/25 08:19:36;;;;;;;7.75;4.80;;;15.60;99.90;;;;;;5111898;27;20499;-74
2021/08/25 08:22:02;;;;;;;10.23;5.10;;;15.70;99.90;;;;;;5114720;27;20043;-74
2021/08/25 08:24:28;;;;;;;7.70;4.95;;;15.80;99.90;;;;;;5091481;28;20062;-74
2021/08/25 08:26:55;;;;;;;8.70;5.13;;;15.80;99.90;;;;;;5104839;27;20084;-74
2021/08/25 08:29:21;;;;;;;7.35;4.97;;;15.90;99.90;;;;;;5092604;28;20773;-74
2021/08/25 08:31:47;;;;;;;9.13;4.97;;;15.90;99.90;;;;;;5097156;28;20036;-74
2021/08/25 08:34:13;;;;;;;7.75;5.05;;;15.90;99.90;;;;;;5105197;28;20035;-74
2021/08/25 08:36:38;;;;;;;6.32;4.53;;;15.90;99.90;;;;;;5107440;28;20053;-73
2021/08/25 08:39:04;;;;;;;8.10;4.72;;;15.90;99.90;;;;;;5115984;28;20364;-74
2021/08/25 08:41:30;;;;;;;8.95;5.60;;;16.00;99.90;;;;;;5115595;28;20069;-74
2021/08/25 08:43:56;;;;;;;9.07;4.35;;;16.00;99.90;;;;;;5115743;28;20034;-74
2021/08/25 08:46:23;;;;;;;7.43;4.60;;;16.10;99.90;;;;;;5114918;28;20056;-74
2021/08/25 08:48:50;;;;;;;7.20;4.25;;;16.10;99.90;;;;;;5094766;28;20467;-80
2021/08/25 08:51:21;;;;;;;8.23;5.20;;;16.10;99.90;;;;;;5098128;27;20028;-74
2021/08/25 08:53:48;;;;;;;8.43;5.47;;;16.20;99.90;;;;;;5126388;27;20024;-74
2021/08/25 08:56:14;;;;;;;6.50;4.88;;;16.20;99.90;;;;;;5090279;28;20438;-74
2021/08/25 08:58:42;;;;;;;8.55;4.30;;;16.20;99.90;;;;;;5081689;28;20047;-77
2021/08/25 09:01:08;;;;;;;7.28;4.72;;;16.30;99.90;;;;;;5119598;27;20107;-75
2021/08/25 09:03:36;;;;;;;9.23;5.05;;;16.30;99.90;;;;;;5114937;28;20030;-76
2021/08/25 09:06:02;;;;;;;8.45;4.88;;;16.30;99.90;;;;;;5114705;28;20123;-74
2021/08/25 09:08:30;;;;;;;8.82;4.50;;;16.40;99.90;;;;;;5115153;28;20036;-73
2021/08/25 09:11:07;;;;;;;11.98;5.72;;;16.50;99.90;;;;;;5115060;28;20066;-74
2021/08/25 09:13:36;;;;;;;9.50;4.82;;;16.60;99.90;;;;;;5115295;28;20081;-75
2021/08/25 09:16:03;;;;;;;5.65;4.07;;;16.60;99.90;;;;;;5114921;28;20048;-75
2021/08/25 09:18:29;;;;;;;9.75;5.20;;;16.70;99.90;;;;;;5114835;28;20020;-75
2021/08/25 09:20:54;;;;;;;9.18;4.57;;;16.80;99.90;;;;;;5114734;28;20047;-74
2021/08/25 09:23:22;;;;;;;7.13;4.13;;;16.80;99.90;;;;;;5096414;28;20024;-74
2021/08/25 09:25:51;;;;;;;6.90;4.63;;;16.90;99.90;;;;;;5114739;28;20056;-75
2021/08/25 09:28:18;;;;;;;6.88;4.63;;;16.80;99.90;;;;;;5103498;28;20490;-75
2021/08/25 09:30:56;;;;;;;6.90;4.43;;;17.00;99.90;;;;;;5114581;28;20039;-75
2021/08/25 09:33:24;;;;;;;6.85;4.95;;;17.10;99.90;;;;;;5097006;28;20377;-75
2021/08/25 09:35:49;;;;;;;6.40;4.22;;;17.10;99.90;;;;;;5114930;28;20027;-75
2021/08/25 09:38:18;;;;;;;7.03;4.35;;;17.30;99.90;;;;;;5114441;28;20149;-75
2021/08/25 09:40:50;;;;;;;8.38;4.72;;;17.50;99.90;;;;;;5114612;28;20053;-75
2021/08/25 09:43:36;;;;;;;8.68;5.32;;;17.70;99.90;;;;;;5114464;28;20092;-75
2021/08/25 09:46:06;;;;;;;9.23;5.07;;;17.80;99.90;;;;;;5114435;28;20034;-75
2021/08/25 09:48:33;;;;;;;7.45;4.60;;;17.80;99.90;;;;;;5096376;28;20030;-75
2021/08/25 09:50:59;;;;;;;8.18;4.53;;;17.90;99.90;;;;;;5111448;28;20115;-74
2021/08/25 09:53:24;;;;;;;7.95;4.53;;;18.10;99.90;;;;;;5114448;28;20110;-75
2021/08/25 09:55:50;;;;;;;8.05;4.93;;;18.20;99.90;;;;;;5113429;28;20088;-76
2021/08/25 09:58:16;;;;;;;7.15;5.10;;;18.40;99.90;;;;;;5093971;28;20032;-75
2021/08/25 10:00:42;;;;;;;6.38;4.50;;;18.40;99.90;;;;;;5093744;28;20024;-74
2021/08/25 10:03:07;;;;;;;7.30;4.38;;;18.70;99.90;;;;;;5093662;28;20036;-75
2021/08/25 10:05:33;;;;;;;6.53;4.38;;;18.90;99.90;;;;;;5107417;28;20076;-75
2021/08/25 10:08:07;;;;;;;7.57;4.43;;;18.60;99.90;;;;;;5114095;28;20433;-75
2021/08/25 10:10:37;;;;;;;7.40;4.85;;;18.60;99.90;;;;;;5113367;28;20088;-75
2021/08/25 10:13:08;;;;;;;6.57;4.15;;;18.70;99.90;;;;;;5113811;28;20071;-75
2021/08/25 10:15:35;;;;;;;6.65;4.13;;;18.70;99.90;;;;;;5113739;28;20084;-75
2021/08/25 10:18:19;;;;;;;7.95;4.88;;;18.90;99.90;;;;;;5112608;28;20027;-74
2021/08/25 10:20:45;;;;;;;8.68;4.80;;;18.90;99.90;;;;;;5109447;28;20061;-75
2021/08/25 10:23:10;;;;;;;8.38;4.80;;;19.00;99.90;;;;;;5095196;28;20099;-75
2021/08/25 10:26:06;;;;;;;8.82;4.57;;;19.10;99.90;;;;;;5113835;28;20023;-75
2021/08/25 10:29:00;;;;;;;8.50;4.55;;;19.30;99.90;;;;;;5113932;28;20024;-75
2021/08/25 10:31:50;;;;;;;8.82;4.93;;;19.20;99.90;;;;;;5113624;28;20076;-75
2021/08/25 10:34:27;;;;;;;8.38;4.78;;;19.30;99.90;;;;;;5113691;28;20024;-75
2021/08/25 10:37:11;;;;;;;7.97;4.00;;;19.50;99.90;;;;;;5088452;28;20024;-75
2021/08/25 10:39:41;;;;;;;6.45;4.25;;;19.40;99.90;;;;;;5093556;28;20167;-74
2021/08/25 10:42:08;;;;;;;6.50;4.50;;;19.80;99.90;;;;;;5093087;28;20020;-74
2021/08/25 10:44:49;;;;;;;6.57;4.45;;;20.10;99.90;;;;;;5093330;28;20027;-75
2021/08/25 10:47:17;;;;;;;7.50;4.28;;;20.10;99.90;;;;;;5093418;28;20027;-74
2021/08/25 10:49:48;;;;;;;6.65;4.53;;;20.30;99.90;;;;;;5106878;28;20028;-74
2021/08/25 10:52:18;;;;;;;8.27;4.65;;;20.40;99.90;;;;;;5113601;28;20033;-73
2021/08/25 10:54:46;;;;;;;9.88;4.85;;;20.50;99.90;;;;;;5113769;28;20103;-74
2021/08/25 10:57:16;;;;;;;6.28;4.68;;;20.50;99.90;;;;;;5113389;28;20447;-75
2021/08/25 10:59:42;;;;;;;9.55;4.22;;;20.50;99.90;;;;;;5112800;28;20108;-75
2021/08/25 11:02:09;;;;;;;8.60;4.50;;;20.70;99.90;;;;;;5095638;28;20546;-75
2021/08/25 11:04:35;;;;;;;8.57;4.47;;;20.80;99.90;;;;;;5107405;28;20039;-75
2021/08/25 11:07:04;;;;;;;7.75;3.97;;;20.60;99.90;;;;;;5108567;28;20027;-75
2021/08/25 11:09:46;;;;;;;6.97;4.28;;;20.40;99.90;;;;;;5092331;28;20341;-75
2021/08/25 11:12:14;;;;;;;8.35;4.60;;;20.50;99.90;;;;;;5107000;28;20039;-73
2021/08/25 11:14:46;;;;;;;7.32;4.85;;;20.70;99.90;;;;;;5133755;28;20031;-74
2021/08/25 11:17:21;;;;;;;9.23;4.40;;;20.80;99.90;;;;;;5133602;28;20139;-74
2021/08/25 11:19:54;;;;;;;5.95;4.22;;;20.70;99.90;;;;;;5132576;27;20116;-75
2021/08/25 11:22:24;;;;;;;6.85;4.28;;;20.80;99.90;;;;;;5091315;28;20077;-75
2021/08/25 11:24:51;;;;;;;7.45;4.35;;;20.90;99.90;;;;;;5123755;27;20099;-75
2021/08/25 11:27:30;;;;;;;7.68;4.80;;;21.00;99.90;;;;;;5105383;28;20031;-75
2021/08/25 11:30:13;;;;;;;10.20;4.78;;;20.90;99.90;;;;;;5116301;28;20031;-75
2021/08/25 11:32:50;;;;;;;7.60;3.95;;;21.10;99.90;;;;;;5112716;28;20097;-75
2021/08/25 11:35:30;;;;;;;6.18;4.03;;;21.20;99.90;;;;;;5097086;28;20021;-75
2021/08/25 11:38:02;;;;;;;5.97;3.92;;;21.20;99.90;;;;;;5103992;28;20032;-75
2021/08/25 11:40:29;;;;;;;6.57;4.47;;;21.40;99.90;;;;;;5103927;28;20496;-75
2021/08/25 11:42:55;;;;;;;7.88;4.32;;;21.40;99.90;;;;;;5107159;28;20039;-75
2021/08/25 11:45:28;;;;;;;6.15;4.30;;;21.30;99.90;;;;;;5111118;28;20027;-75
2021/08/25 11:47:56;;;;;;;8.80;4.65;;;21.10;99.90;;;;;;5099751;28;20021;-76
2021/08/25 11:50:24;;;;;;;6.55;4.05;;;20.80;99.90;;;;;;5095300;28;20039;-75
2021/08/25 11:52:50;;;;;;;7.50;4.70;;;20.70;99.90;;;;;;5104941;28;20020;-75
2021/08/25 11:55:17;;;;;;;7.13;4.85;;;20.90;99.90;;;;;;5096017;28;20073;-75
2021/08/25 11:57:53;;;;;;;8.23;4.30;;;21.10;99.90;;;;;;5093993;28;20034;-75
2021/08/25 12:00:21;;;;;;;9.10;4.38;;;21.00;99.90;;;;;;5107636;28;20016;-76
2021/08/25 12:02:51;;;;;;;6.60;4.15;;;21.10;99.90;;;;;;5110249;28;20048;-75
2021/08/25 12:05:22;;;;;;;6.32;4.20;;;21.20;99.90;;;;;;5107568;28;20073;-75
2021/08/25 12:08:08;;;;;;;8.75;4.43;;;21.10;99.90;;;;;;5104100;28;20097;-75
2021/08/25 12:10:37;;;;;;;6.63;4.43;;;21.10;99.90;;;;;;5115784;28;20035;-76
2021/08/25 12:13:03;;;;;;;11.23;5.45;;;21.40;99.90;;;;;;5115206;28;20024;-75
2021/08/25 12:16:02;;;;;;;8.45;5.32;;;21.30;99.90;;;;;;5112459;28;20361;-74
2021/08/25 12:18:29;;;;;;;8.50;5.00;;;21.40;99.90;;;;;;5082411;28;20048;-74
2021/08/25 12:21:08;;;;;;;8.88;5.00;;;21.70;99.90;;;;;;5115446;28;20130;-75
2021/08/25 12:23:34;;;;;;;8.90;5.30;;;21.90;99.90;;;;;;5109230;28;20027;-75
2021/08/25 12:25:59;;;;;;;6.82;4.22;;;21.80;99.90;;;;;;5095341;28;20102;-75
2021/08/25 12:28:39;;;;;;;8.50;5.15;;;21.90;99.90;;;;;;5095715;28;20032;-75
2021/08/25 12:31:25;;;;;;;7.80;5.07;;;21.70;99.90;;;;;;5094092;28;20445;-75
2021/08/25 12:34:04;;;;;;;7.88;5.50;;;21.70;99.90;;;;;;5093897;28;20036;-74
2021/08/25 12:36:34;;;;;;;8.68;4.93;;;21.70;99.90;;;;;;5106599;28;20405;-75
2021/08/25 12:39:06;;;;;;;6.63;4.50;;;21.50;99.90;;;;;;5115782;28;20053;-74
2021/08/25 12:41:36;;;;;;;9.70;5.68;;;21.70;99.90;;;;;;5115842;28;20153;-75
2021/08/25 12:44:02;;;;;;;7.95;5.10;;;21.80;99.90;;;;;;5110540;28;20012;-75